sensor_id;sensor_type;location;lat;lon;timestamp;P1;durP1;ratioP1;P2;durP2;ratioP2
47617;SDS011;33336;36.728;-4.414;2022-08-23T00:00:12;8.20;;;3.20;;
47617;SDS011;33336;36.728;-4.414;2022-08-23T00:05:16;5.97;;;2.22;;
47617;SDS011;33336;36.728;-4.414;2022-08-23T00:10:21;7.22;;;2.28;;
47617;SDS011;33336;36.728;-4.414;2022-08-23T00:15:24;8.82;;;2.45;;
47617;SDS011;33336;36.728;-4.414;2022-08-23T00:20:27;10.30;;;2.95;;
47617;SDS011;33336;36.728;-4.414;2022-08-23T00:25:31;5.70;;;2.42;;
47617;SDS011;33336;36.728;-4.414;2022-08-23T00:30:34;6.95;;;2.80;;
47617;SDS011;33336;36.728;-4.414;2022-08-23T00:35:38;7.05;;;2.75;;
47617;SDS011;33336;36.728;-4.414;2022-08-23T00:40:42;7.57;;;2.58;;
47617;SDS011;33336;36.728;-4.414;2022-08-23T00:45:47;3.67;;;2.03;;
47617;SDS011;33336;36.728;-4.414;2022-08-23T00:51:20;9.48;;;2.92;;
47617;SDS011;33336;36.728;-4.414;2022-08-23T00:56:30;6.95;;;2.90;;
47617;SDS011;33336;36.728;-4.414;2022-08-23T01:01:35;2.80;;;1.88;;
47617;SDS011;33336;36.728;-4.414;2022-08-23T01:06:39;9.38;;;2.50;;
47617;SDS011;33336;36.728;-4.414;2022-08-23T01:11:48;7.85;;;2.72;;
47617;SDS011;33336;36.728;-4.414;2022-08-23T01:16:55;9.23;;;2.38;;
47617;SDS011;33336;36.728;-4.414;2022-08-23T01:22:06;6.88;;;1.90;;
47617;SDS011;33336;36.728;-4.414;2022-08-23T01:27:15;8.18;;;2.30;;
47617;SDS011;33336;36.728;-4.414;2022-08-23T01:32:19;6.80;;;2.50;;
47617;SDS011;33336;36.728;-4.414;2022-08-23T01:37:22;6.47;;;2.88;;
47617;SDS011;33336;36.728;-4.414;2022-08-23T01:42:26;6.65;;;2.53;;
47617;SDS011;33336;36.728;-4.414;2022-08-23T01:47:29;8.30;;;2.30;;
47617;SDS011;33336;36.728;-4.414;2022-08-23T01:52:33;8.90;;;2.95;;
47617;SDS011;33336;36.728;-4.414;2022-08-23T01:57:38;6.25;;;3.65;;
47617;SDS011;33336;36.728;-4.414;2022-08-23T02:02:42;7.03;;;2.77;;
47617;SDS011;33336;36.728;-4.414;2022-08-23T02:07:47;7.90;;;2.75;;
47617;SDS011;33336;36.728;-4.414;2022-08-23T02:12:51;10.98;;;3.03;;
47617;SDS011;33336;36.728;-4.414;2022-08-23T02:17:54;14.35;;;3.70;;
47617;SDS011;33336;36.728;-4.414;2022-08-23T02:22:57;10.25;;;3.42;;
47617;SDS011;33336;36.728;-4.414;2022-08-23T02:28:01;7.28;;;2.47;;
47617;SDS011;33336;36.728;-4.414;2022-08-23T02:33:04;6.43;;;2.78;;
47617;SDS011;33336;36.728;-4.414;2022-08-23T02:38:09;5.97;;;3.10;;
47617;SDS011;33336;36.728;-4.414;2022-08-23T02:43:14;10.68;;;3.45;;
47617;SDS011;33336;36.728;-4.414;2022-08-23T02:48:18;10.50;;;2.92;;
47617;SDS011;33336;36.728;-4.414;2022-08-23T02:53:22;6.28;;;2.90;;
47617;SDS011;33336;36.728;-4.414;2022-08-23T02:58:26;4.05;;;2.63;;
47617;SDS011;33336;36.728;-4.414;2022-08-23T03:03:29;5.75;;;2.83;;
47617;SDS011;33336;36.728;-4.414;2022-08-23T03:08:32;7.47;;;2.50;;
47617;SDS011;33336;36.728;-4.414;2022-08-23T03:13:36;5.70;;;2.78;;
47617;SDS011;33336;36.728;-4.414;2022-08-23T03:18:40;9.57;;;2.58;;
47617;SDS011;33336;36.728;-4.414;2022-08-23T03:23:44;13.80;;;3.47;;
47617;SDS011;33336;36.728;-4.414;2022-08-23T03:28:49;9.48;;;2.88;;
47617;SDS011;33336;36.728;-4.414;2022-08-23T03:33:52;9.05;;;3.67;;
47617;SDS011;33336;36.728;-4.414;2022-08-23T03:38:56;6.00;;;3.08;;
47617;SDS011;33336;36.728;-4.414;2022-08-23T03:44:01;5.80;;;3.03;;
47617;SDS011;33336;36.728;-4.414;2022-08-23T03:49:05;5.75;;;3.05;;
47617;SDS011;33336;36.728;-4.414;2022-08-23T03:54:08;5.45;;;2.60;;
47617;SDS011;33336;36.728;-4.414;2022-08-23T03:59:13;6.68;;;2.95;;
47617;SDS011;33336;36.728;-4.414;2022-08-23T04:04:16;7.80;;;2.90;;
47617;SDS011;33336;36.728;-4.414;2022-08-23T04:09:20;6.10;;;2.30;;
47617;SDS011;33336;36.728;-4.414;2022-08-23T04:14:24;7.70;;;3.92;;
47617;SDS011;33336;36.728;-4.414;2022-08-23T04:19:28;7.53;;;2.53;;
47617;SDS011;33336;36.728;-4.414;2022-08-23T04:24:31;8.68;;;2.92;;
47617;SDS011;33336;36.728;-4.414;2022-08-23T04:29:35;6.07;;;2.63;;
47617;SDS011;33336;36.728;-4.414;2022-08-23T04:34:39;10.07;;;3.38;;
47617;SDS011;33336;36.728;-4.414;2022-08-23T04:39:44;4.32;;;2.70;;
47617;SDS011;33336;36.728;-4.414;2022-08-23T04:45:06;8.43;;;3.38;;
47617;SDS011;33336;36.728;-4.414;2022-08-23T04:50:10;7.65;;;3.22;;
47617;SDS011;33336;36.728;-4.414;2022-08-23T04:55:13;10.27;;;2.75;;
47617;SDS011;33336;36.728;-4.414;2022-08-23T05:00:17;9.02;;;3.45;;
47617;SDS011;33336;36.728;-4.414;2022-08-23T05:05:20;6.97;;;3.03;;
47617;SDS011;33336;36.728;-4.414;2022-08-23T05:10:24;6.97;;;3.47;;
47617;SDS011;33336;36.728;-4.414;2022-08-23T05:15:28;13.25;;;3.28;;
47617;SDS011;33336;36.728;-4.414;2022-08-23T05:20:32;9.52;;;3.65;;
47617;SDS011;33336;36.728;-4.414;2022-08-23T05:25:35;12.23;;;4.15;;
47617;SDS011;33336;36.728;-4.414;2022-08-23T05:30:56;13.68;;;3.92;;
47617;SDS011;33336;36.728;-4.414;2022-08-23T05:36:01;7.32;;;3.50;;
47617;SDS011;33336;36.728;-4.414;2022-08-23T05:41:06;7.18;;;2.85;;
47617;SDS011;33336;36.728;-4.414;2022-08-23T05:46:12;3.88;;;2.90;;
47617;SDS011;33336;36.728;-4.414;2022-08-23T05:51:18;6.13;;;3.30;;
47617;SDS011;33336;36.728;-4.414;2022-08-23T05:56:22;5.32;;;2.88;;
47617;SDS011;33336;36.728;-4.414;2022-08-23T06:01:30;10.02;;;3.28;;
47617;SDS011;33336;36.728;-4.414;2022-08-23T06:06:33;7.30;;;3.35;;
47617;SDS011;33336;36.728;-4.414;2022-08-23T06:11:37;8.55;;;3.55;;
47617;SDS011;33336;36.728;-4.414;2022-08-23T06:16:43;9.55;;;2.92;;
47617;SDS011;33336;36.728;-4.414;2022-08-23T06:21:48;7.70;;;3.33;;
47617;SDS011;33336;36.728;-4.414;2022-08-23T06:26:51;7.07;;;2.63;;
47617;SDS011;33336;36.728;-4.414;2022-08-23T06:31:56;12.60;;;4.30;;
47617;SDS011;33336;36.728;-4.414;2022-08-23T06:37:00;12.98;;;3.35;;
47617;SDS011;33336;36.728;-4.414;2022-08-23T06:42:06;15.77;;;4.20;;
47617;SDS011;33336;36.728;-4.414;2022-08-23T06:47:12;14.80;;;4.03;;
47617;SDS011;33336;36.728;-4.414;2022-08-23T06:52:15;10.27;;;3.70;;
47617;SDS011;33336;36.728;-4.414;2022-08-23T06:57:17;12.23;;;4.20;;
47617;SDS011;33336;36.728;-4.414;2022-08-23T07:02:22;16.40;;;3.92;;
47617;SDS011;33336;36.728;-4.414;2022-08-23T07:07:26;10.85;;;3.90;;
47617;SDS011;33336;36.728;-4.414;2022-08-23T07:12:29;9.40;;;4.18;;
47617;SDS011;33336;36.728;-4.414;2022-08-23T07:17:33;6.85;;;4.22;;
47617;SDS011;33336;36.728;-4.414;2022-08-23T07:22:37;15.27;;;4.03;;
47617;SDS011;33336;36.728;-4.414;2022-08-23T07:27:40;7.85;;;3.58;;
47617;SDS011;33336;36.728;-4.414;2022-08-23T07:32:45;9.90;;;3.78;;
47617;SDS011;33336;36.728;-4.414;2022-08-23T07:37:48;11.93;;;3.63;;
47617;SDS011;33336;36.728;-4.414;2022-08-23T07:42:54;15.75;;;4.05;;
47617;SDS011;33336;36.728;-4.414;2022-08-23T07:48:03;13.67;;;3.63;;
47617;SDS011;33336;36.728;-4.414;2022-08-23T07:53:08;11.13;;;3.58;;
47617;SDS011;33336;36.728;-4.414;2022-08-23T07:58:11;6.05;;;2.40;;
47617;SDS011;33336;36.728;-4.414;2022-08-23T08:03:18;14.20;;;3.38;;
47617;SDS011;33336;36.728;-4.414;2022-08-23T08:08:26;7.45;;;2.70;;
47617;SDS011;33336;36.728;-4.414;2022-08-23T08:13:32;6.68;;;2.08;;
47617;SDS011;33336;36.728;-4.414;2022-08-23T08:18:36;4.95;;;1.67;;
47617;SDS011;33336;36.728;-4.414;2022-08-23T08:23:42;5.50;;;1.60;;
47617;SDS011;33336;36.728;-4.414;2022-08-23T08:33:56;7.65;;;1.52;;
47617;SDS011;33336;36.728;-4.414;2022-08-23T08:39:06;4.78;;;1.20;;
47617;SDS011;33336;36.728;-4.414;2022-08-23T08:44:13;5.82;;;1.30;;
47617;SDS011;33336;36.728;-4.414;2022-08-23T08:49:28;5.28;;;1.83;;
47617;SDS011;33336;36.728;-4.414;2022-08-23T08:54:36;6.57;;;1.60;;
47617;SDS011;33336;36.728;-4.414;2022-08-23T08:59:41;3.65;;;1.45;;
47617;SDS011;33336;36.728;-4.414;2022-08-23T09:04:49;10.45;;;4.30;;
47617;SDS011;33336;36.728;-4.414;2022-08-23T09:09:56;4.38;;;1.48;;
47617;SDS011;33336;36.728;-4.414;2022-08-23T09:15:19;2.45;;;1.20;;
47617;SDS011;33336;36.728;-4.414;2022-08-23T09:20:31;4.53;;;1.20;;
47617;SDS011;33336;36.728;-4.414;2022-08-23T09:30:47;3.03;;;1.00;;
47617;SDS011;33336;36.728;-4.414;2022-08-23T09:41:21;6.43;;;1.77;;
47617;SDS011;33336;36.728;-4.414;2022-08-23T09:46:28;4.80;;;1.27;;
47617;SDS011;33336;36.728;-4.414;2022-08-23T09:51:34;6.82;;;1.20;;
47617;SDS011;33336;36.728;-4.414;2022-08-23T09:56:42;5.57;;;1.45;;
47617;SDS011;33336;36.728;-4.414;2022-08-23T10:01:51;3.83;;;0.95;;
47617;SDS011;33336;36.728;-4.414;2022-08-23T10:06:58;5.57;;;2.05;;
47617;SDS011;33336;36.728;-4.414;2022-08-23T10:12:02;5.15;;;1.10;;
47617;SDS011;33336;36.728;-4.414;2022-08-23T10:17:07;4.97;;;2.10;;
47617;SDS011;33336;36.728;-4.414;2022-08-23T10:22:18;9.40;;;1.42;;
47617;SDS011;33336;36.728;-4.414;2022-08-23T10:27:26;2.42;;;1.50;;
47617;SDS011;33336;36.728;-4.414;2022-08-23T10:33:07;4.13;;;1.20;;
47617;SDS011;33336;36.728;-4.414;2022-08-23T10:38:25;7.78;;;1.60;;
47617;SDS011;33336;36.728;-4.414;2022-08-23T10:43:41;8.13;;;1.40;;
47617;SDS011;33336;36.728;-4.414;2022-08-23T10:48:53;9.52;;;1.27;;
47617;SDS011;33336;36.728;-4.414;2022-08-23T10:54:00;3.30;;;1.20;;
47617;SDS011;33336;36.728;-4.414;2022-08-23T10:59:06;4.25;;;1.23;;
47617;SDS011;33336;36.728;-4.414;2022-08-23T11:04:16;2.55;;;0.98;;
47617;SDS011;33336;36.728;-4.414;2022-08-23T11:09:31;6.93;;;1.50;;
47617;SDS011;33336;36.728;-4.414;2022-08-23T11:15:02;4.95;;;1.10;;
47617;SDS011;33336;36.728;-4.414;2022-08-23T11:20:12;7.30;;;1.48;;
47617;SDS011;33336;36.728;-4.414;2022-08-23T11:25:40;3.90;;;1.55;;
47617;SDS011;33336;36.728;-4.414;2022-08-23T11:30:46;6.10;;;1.60;;
47617;SDS011;33336;36.728;-4.414;2022-08-23T11:40:59;4.93;;;1.48;;
47617;SDS011;33336;36.728;-4.414;2022-08-23T11:51:43;5.65;;;1.50;;
47617;SDS011;33336;36.728;-4.414;2022-08-23T11:56:57;5.70;;;1.65;;
47617;SDS011;33336;36.728;-4.414;2022-08-23T12:07:50;17.77;;;2.70;;
47617;SDS011;33336;36.728;-4.414;2022-08-23T12:18:31;3.35;;;1.05;;
47617;SDS011;33336;36.728;-4.414;2022-08-23T12:34:07;7.10;;;1.92;;
47617;SDS011;33336;36.728;-4.414;2022-08-23T12:39:20;12.30;;;2.65;;
47617;SDS011;33336;36.728;-4.414;2022-08-23T12:44:27;4.25;;;2.10;;
47617;SDS011;33336;36.728;-4.414;2022-08-23T12:49:32;3.43;;;1.13;;
47617;SDS011;33336;36.728;-4.414;2022-08-23T12:54:37;7.82;;;1.80;;
47617;SDS011;33336;36.728;-4.414;2022-08-23T12:59:43;6.63;;;2.13;;
47617;SDS011;33336;36.728;-4.414;2022-08-23T13:04:57;3.72;;;1.45;;
47617;SDS011;33336;36.728;-4.414;2022-08-23T13:10:06;7.80;;;1.88;;
47617;SDS011;33336;36.728;-4.414;2022-08-23T13:15:11;7.18;;;1.33;;
47617;SDS011;33336;36.728;-4.414;2022-08-23T13:20:34;4.43;;;1.23;;
47617;SDS011;33336;36.728;-4.414;2022-08-23T13:25:38;2.45;;;0.88;;
47617;SDS011;33336;36.728;-4.414;2022-08-23T13:30:44;5.82;;;1.80;;
47617;SDS011;33336;36.728;-4.414;2022-08-23T13:36:07;4.55;;;1.55;;
47617;SDS011;33336;36.728;-4.414;2022-08-23T13:41:26;5.03;;;1.27;;
47617;SDS011;33336;36.728;-4.414;2022-08-23T13:46:33;4.00;;;1.38;;
47617;SDS011;33336;36.728;-4.414;2022-08-23T13:57:10;4.97;;;1.38;;
47617;SDS011;33336;36.728;-4.414;2022-08-23T14:02:16;3.53;;;0.90;;
47617;SDS011;33336;36.728;-4.414;2022-08-23T14:07:22;4.35;;;1.23;;
47617;SDS011;33336;36.728;-4.414;2022-08-23T14:12:25;5.18;;;1.40;;
47617;SDS011;33336;36.728;-4.414;2022-08-23T14:17:33;6.93;;;1.02;;
47617;SDS011;33336;36.728;-4.414;2022-08-23T14:22:40;4.68;;;1.23;;
47617;SDS011;33336;36.728;-4.414;2022-08-23T14:27:44;9.52;;;1.70;;
47617;SDS011;33336;36.728;-4.414;2022-08-23T14:32:50;4.63;;;1.42;;
47617;SDS011;33336;36.728;-4.414;2022-08-23T14:37:54;4.28;;;1.30;;
47617;SDS011;33336;36.728;-4.414;2022-08-23T14:42:57;3.95;;;1.40;;
47617;SDS011;33336;36.728;-4.414;2022-08-23T14:48:02;2.28;;;1.15;;
47617;SDS011;33336;36.728;-4.414;2022-08-23T14:53:06;4.35;;;1.48;;
47617;SDS011;33336;36.728;-4.414;2022-08-23T14:58:10;5.47;;;1.25;;
47617;SDS011;33336;36.728;-4.414;2022-08-23T15:03:15;2.55;;;1.05;;
47617;SDS011;33336;36.728;-4.414;2022-08-23T15:08:20;3.08;;;1.30;;
47617;SDS011;33336;36.728;-4.414;2022-08-23T15:13:24;5.10;;;1.20;;
47617;SDS011;33336;36.728;-4.414;2022-08-23T15:18:30;3.03;;;1.23;;
47617;SDS011;33336;36.728;-4.414;2022-08-23T15:23:33;3.08;;;1.00;;
47617;SDS011;33336;36.728;-4.414;2022-08-23T15:28:37;5.10;;;1.35;;
47617;SDS011;33336;36.728;-4.414;2022-08-23T15:33:42;5.00;;;1.20;;
47617;SDS011;33336;36.728;-4.414;2022-08-23T15:38:46;2.78;;;1.10;;
47617;SDS011;33336;36.728;-4.414;2022-08-23T15:43:49;3.15;;;1.15;;
47617;SDS011;33336;36.728;-4.414;2022-08-23T15:48:55;3.63;;;0.88;;
47617;SDS011;33336;36.728;-4.414;2022-08-23T15:54:01;4.93;;;1.20;;
47617;SDS011;33336;36.728;-4.414;2022-08-23T15:59:05;5.53;;;1.10;;
47617;SDS011;33336;36.728;-4.414;2022-08-23T16:04:12;2.33;;;0.80;;
47617;SDS011;33336;36.728;-4.414;2022-08-23T16:09:16;4.73;;;1.13;;
47617;SDS011;33336;36.728;-4.414;2022-08-23T16:14:22;2.92;;;1.23;;
47617;SDS011;33336;36.728;-4.414;2022-08-23T16:19:26;5.55;;;1.10;;
47617;SDS011;33336;36.728;-4.414;2022-08-23T16:24:29;3.05;;;1.40;;
47617;SDS011;33336;36.728;-4.414;2022-08-23T16:29:33;3.03;;;1.23;;
47617;SDS011;33336;36.728;-4.414;2022-08-23T16:34:38;3.03;;;0.93;;
47617;SDS011;33336;36.728;-4.414;2022-08-23T16:39:48;4.47;;;1.55;;
47617;SDS011;33336;36.728;-4.414;2022-08-23T16:44:53;5.97;;;1.08;;
47617;SDS011;33336;36.728;-4.414;2022-08-23T16:49:58;4.20;;;1.03;;
47617;SDS011;33336;36.728;-4.414;2022-08-23T16:55:01;4.72;;;1.30;;
47617;SDS011;33336;36.728;-4.414;2022-08-23T17:00:06;3.65;;;1.48;;
47617;SDS011;33336;36.728;-4.414;2022-08-23T17:05:16;2.03;;;0.93;;
47617;SDS011;33336;36.728;-4.414;2022-08-23T17:10:21;3.30;;;0.93;;
47617;SDS011;33336;36.728;-4.414;2022-08-23T17:15:25;4.47;;;1.20;;
47617;SDS011;33336;36.728;-4.414;2022-08-23T17:20:34;4.82;;;1.92;;
47617;SDS011;33336;36.728;-4.414;2022-08-23T17:25:39;5.40;;;1.42;;
47617;SDS011;33336;36.728;-4.414;2022-08-23T17:30:48;3.70;;;1.35;;
47617;SDS011;33336;36.728;-4.414;2022-08-23T17:35:52;3.88;;;1.00;;
47617;SDS011;33336;36.728;-4.414;2022-08-23T17:40:56;4.45;;;1.20;;
47617;SDS011;33336;36.728;-4.414;2022-08-23T17:45:58;2.05;;;1.23;;
47617;SDS011;33336;36.728;-4.414;2022-08-23T17:51:03;4.78;;;1.67;;
47617;SDS011;33336;36.728;-4.414;2022-08-23T17:56:06;3.85;;;1.13;;
47617;SDS011;33336;36.728;-4.414;2022-08-23T18:01:10;5.68;;;1.92;;
47617;SDS011;33336;36.728;-4.414;2022-08-23T18:06:14;2.80;;;1.00;;
47617;SDS011;33336;36.728;-4.414;2022-08-23T18:11:19;6.22;;;1.83;;
47617;SDS011;33336;36.728;-4.414;2022-08-23T18:16:22;4.10;;;1.48;;
47617;SDS011;33336;36.728;-4.414;2022-08-23T18:21:30;7.05;;;1.50;;
47617;SDS011;33336;36.728;-4.414;2022-08-23T18:26:33;6.70;;;1.75;;
47617;SDS011;33336;36.728;-4.414;2022-08-23T18:31:55;5.57;;;1.75;;
47617;SDS011;33336;36.728;-4.414;2022-08-23T18:36:59;6.60;;;2.65;;
47617;SDS011;33336;36.728;-4.414;2022-08-23T18:42:03;6.20;;;1.88;;
47617;SDS011;33336;36.728;-4.414;2022-08-23T18:47:08;5.55;;;1.83;;
47617;SDS011;33336;36.728;-4.414;2022-08-23T18:52:13;7.80;;;2.10;;
47617;SDS011;33336;36.728;-4.414;2022-08-23T18:57:16;5.75;;;1.75;;
47617;SDS011;33336;36.728;-4.414;2022-08-23T19:02:20;16.02;;;2.60;;
47617;SDS011;33336;36.728;-4.414;2022-08-23T19:07:25;10.00;;;2.25;;
47617;SDS011;33336;36.728;-4.414;2022-08-23T19:12:28;5.93;;;1.83;;
47617;SDS011;33336;36.728;-4.414;2022-08-23T19:17:30;8.75;;;1.95;;
47617;SDS011;33336;36.728;-4.414;2022-08-23T19:22:36;8.35;;;2.40;;
47617;SDS011;33336;36.728;-4.414;2022-08-23T19:27:39;8.68;;;1.73;;
47617;SDS011;33336;36.728;-4.414;2022-08-23T19:32:43;10.13;;;2.03;;
47617;SDS011;33336;36.728;-4.414;2022-08-23T19:37:47;7.53;;;2.20;;
47617;SDS011;33336;36.728;-4.414;2022-08-23T19:42:50;16.15;;;3.70;;
47617;SDS011;33336;36.728;-4.414;2022-08-23T19:47:55;10.27;;;2.67;;
47617;SDS011;33336;36.728;-4.414;2022-08-23T19:53:01;10.32;;;2.55;;
47617;SDS011;33336;36.728;-4.414;2022-08-23T19:58:04;5.80;;;1.90;;
47617;SDS011;33336;36.728;-4.414;2022-08-23T20:03:08;8.65;;;2.17;;
47617;SDS011;33336;36.728;-4.414;2022-08-23T20:08:13;6.93;;;2.10;;
47617;SDS011;33336;36.728;-4.414;2022-08-23T20:13:16;9.55;;;2.15;;
47617;SDS011;33336;36.728;-4.414;2022-08-23T20:23:28;5.65;;;2.03;;
47617;SDS011;33336;36.728;-4.414;2022-08-23T20:28:48;7.35;;;2.05;;
47617;SDS011;33336;36.728;-4.414;2022-08-23T20:33:52;8.02;;;2.80;;
47617;SDS011;33336;36.728;-4.414;2022-08-23T20:38:58;5.28;;;2.10;;
47617;SDS011;33336;36.728;-4.414;2022-08-23T20:44:03;8.15;;;2.55;;
47617;SDS011;33336;36.728;-4.414;2022-08-23T20:49:06;7.80;;;2.90;;
47617;SDS011;33336;36.728;-4.414;2022-08-23T20:54:11;5.53;;;2.47;;
47617;SDS011;33336;36.728;-4.414;2022-08-23T20:59:14;6.68;;;2.13;;
47617;SDS011;33336;36.728;-4.414;2022-08-23T21:04:17;4.50;;;2.05;;
47617;SDS011;33336;36.728;-4.414;2022-08-23T21:09:22;6.82;;;2.45;;
47617;SDS011;33336;36.728;-4.414;2022-08-23T21:14:25;7.28;;;2.60;;
47617;SDS011;33336;36.728;-4.414;2022-08-23T21:19:28;7.22;;;2.63;;
47617;SDS011;33336;36.728;-4.414;2022-08-23T21:24:33;8.60;;;2.67;;
47617;SDS011;33336;36.728;-4.414;2022-08-23T21:29:36;4.88;;;2.25;;
47617;SDS011;33336;36.728;-4.414;2022-08-23T21:34:39;7.43;;;3.67;;
47617;SDS011;33336;36.728;-4.414;2022-08-23T21:39:44;9.88;;;2.72;;
47617;SDS011;33336;36.728;-4.414;2022-08-23T21:44:47;6.95;;;2.50;;
47617;SDS011;33336;36.728;-4.414;2022-08-23T21:49:50;6.53;;;3.33;;
47617;SDS011;33336;36.728;-4.414;2022-08-23T21:54:56;6.38;;;2.25;;
47617;SDS011;33336;36.728;-4.414;2022-08-23T21:59:59;10.98;;;2.67;;
47617;SDS011;33336;36.728;-4.414;2022-08-23T22:05:03;7.28;;;2.95;;
47617;SDS011;33336;36.728;-4.414;2022-08-23T22:10:08;11.15;;;2.55;;
47617;SDS011;33336;36.728;-4.414;2022-08-23T22:15:12;5.80;;;2.30;;
47617;SDS011;33336;36.728;-4.414;2022-08-23T22:20:16;8.02;;;2.65;;
47617;SDS011;33336;36.728;-4.414;2022-08-23T22:25:21;10.63;;;2.38;;
47617;SDS011;33336;36.728;-4.414;2022-08-23T22:30:24;6.53;;;2.20;;
47617;SDS011;33336;36.728;-4.414;2022-08-23T22:35:27;7.88;;;2.92;;
47617;SDS011;33336;36.728;-4.414;2022-08-23T22:40:35;7.13;;;2.45;;
47617;SDS011;33336;36.728;-4.414;2022-08-23T22:45:46;11.63;;;2.90;;
47617;SDS011;33336;36.728;-4.414;2022-08-23T22:50:50;9.63;;;2.88;;
47617;SDS011;33336;36.728;-4.414;2022-08-23T22:56:05;10.15;;;2.95;;
47617;SDS011;33336;36.728;-4.414;2022-08-23T23:01:16;12.82;;;3.60;;
47617;SDS011;33336;36.728;-4.414;2022-08-23T23:06:20;6.43;;;2.30;;
47617;SDS011;33336;36.728;-4.414;2022-08-23T23:11:25;8.98;;;2.20;;
47617;SDS011;33336;36.728;-4.414;2022-08-23T23:16:30;8.50;;;2.90;;
47617;SDS011;33336;36.728;-4.414;2022-08-23T23:21:33;12.35;;;3.17;;
47617;SDS011;33336;36.728;-4.414;2022-08-23T23:26:41;7.68;;;2.38;;
47617;SDS011;33336;36.728;-4.414;2022-08-23T23:31:44;9.20;;;3.70;;
47617;SDS011;33336;36.728;-4.414;2022-08-23T23:36:47;12.00;;;3.33;;
47617;SDS011;33336;36.728;-4.414;2022-08-23T23:41:51;7.28;;;3.03;;
47617;SDS011;33336;36.728;-4.414;2022-08-23T23:46:54;7.03;;;2.65;;
47617;SDS011;33336;36.728;-4.414;2022-08-23T23:51:57;10.68;;;3.15;;
47617;SDS011;33336;36.728;-4.414;2022-08-23T23:57:02;8.63;;;2.95;;
